sensor_id;sensor_type;location;lat;lon;timestamp;P1;durP1;ratioP1;P2;durP2;ratioP2
32912;SDS011;19266;45.580;-122.680;2022-09-09T00:02:18;5.03;;;1.40;;
32912;SDS011;19266;45.580;-122.680;2022-09-09T00:04:54;17.70;;;1.95;;
32912;SDS011;19266;45.580;-122.680;2022-09-09T00:07:34;4.92;;;1.42;;
32912;SDS011;19266;45.580;-122.680;2022-09-09T00:12:42;9.55;;;1.50;;
32912;SDS011;19266;45.580;-122.680;2022-09-09T00:15:12;6.10;;;1.42;;
32912;SDS011;19266;45.580;-122.680;2022-09-09T00:17:52;18.92;;;2.33;;
32912;SDS011;19266;45.580;-122.680;2022-09-09T00:20:28;8.83;;;1.60;;
32912;SDS011;19266;45.580;-122.680;2022-09-09T00:22:57;4.97;;;1.37;;
32912;SDS011;19266;45.580;-122.680;2022-09-09T00:25:31;3.52;;;1.15;;
32912;SDS011;19266;45.580;-122.680;2022-09-09T00:28:04;6.40;;;1.85;;
32912;SDS011;19266;45.580;-122.680;2022-09-09T00:30:31;5.35;;;1.30;;
32912;SDS011;19266;45.580;-122.680;2022-09-09T00:33:00;5.53;;;1.40;;
32912;SDS011;19266;45.580;-122.680;2022-09-09T00:35:40;5.35;;;1.17;;
32912;SDS011;19266;45.580;-122.680;2022-09-09T00:38:13;2.67;;;1.20;;
32912;SDS011;19266;45.580;-122.680;2022-09-09T00:48:50;3.10;;;1.30;;
32912;SDS011;19266;45.580;-122.680;2022-09-09T00:56:54;5.17;;;1.40;;
32912;SDS011;19266;45.580;-122.680;2022-09-09T00:59:26;5.78;;;1.50;;
32912;SDS011;19266;45.580;-122.680;2022-09-09T01:01:54;5.87;;;1.42;;
32912;SDS011;19266;45.580;-122.680;2022-09-09T01:04:26;4.00;;;1.35;;
32912;SDS011;19266;45.580;-122.680;2022-09-09T01:07:03;7.65;;;1.65;;
32912;SDS011;19266;45.580;-122.680;2022-09-09T01:09:32;4.55;;;1.57;;
32912;SDS011;19266;45.580;-122.680;2022-09-09T01:17:10;4.70;;;1.47;;
32912;SDS011;19266;45.580;-122.680;2022-09-09T01:22:35;5.10;;;1.65;;
32912;SDS011;19266;45.580;-122.680;2022-09-09T01:27:40;3.65;;;1.47;;
32912;SDS011;19266;45.580;-122.680;2022-09-09T01:30:12;5.15;;;1.50;;
32912;SDS011;19266;45.580;-122.680;2022-09-09T01:32:42;4.90;;;1.42;;
32912;SDS011;19266;45.580;-122.680;2022-09-09T01:35:18;2.87;;;1.40;;
32912;SDS011;19266;45.580;-122.680;2022-09-09T01:37:41;3.62;;;1.40;;
32912;SDS011;19266;45.580;-122.680;2022-09-09T01:40:11;3.37;;;1.50;;
32912;SDS011;19266;45.580;-122.680;2022-09-09T01:42:40;3.87;;;1.62;;
32912;SDS011;19266;45.580;-122.680;2022-09-09T01:45:09;4.50;;;1.50;;
32912;SDS011;19266;45.580;-122.680;2022-09-09T01:47:38;3.47;;;1.47;;
32912;SDS011;19266;45.580;-122.680;2022-09-09T01:50:07;3.42;;;1.50;;
32912;SDS011;19266;45.580;-122.680;2022-09-09T01:52:38;3.27;;;1.30;;
32912;SDS011;19266;45.580;-122.680;2022-09-09T01:55:07;6.97;;;1.67;;
32912;SDS011;19266;45.580;-122.680;2022-09-09T01:57:50;4.22;;;1.40;;
32912;SDS011;19266;45.580;-122.680;2022-09-09T02:00:19;6.83;;;1.50;;
32912;SDS011;19266;45.580;-122.680;2022-09-09T02:03:08;4.60;;;1.30;;
32912;SDS011;19266;45.580;-122.680;2022-09-09T02:05:40;4.22;;;1.50;;
32912;SDS011;19266;45.580;-122.680;2022-09-09T02:08:23;5.62;;;1.60;;
32912;SDS011;19266;45.580;-122.680;2022-09-09T02:13:19;7.67;;;1.55;;
32912;SDS011;19266;45.580;-122.680;2022-09-09T02:16:00;2.98;;;1.27;;
32912;SDS011;19266;45.580;-122.680;2022-09-09T02:18:30;2.02;;;1.30;;
32912;SDS011;19266;45.580;-122.680;2022-09-09T02:20:58;3.12;;;1.57;;
32912;SDS011;19266;45.580;-122.680;2022-09-09T02:23:33;5.35;;;1.72;;
32912;SDS011;19266;45.580;-122.680;2022-09-09T02:26:03;6.45;;;1.62;;
32912;SDS011;19266;45.580;-122.680;2022-09-09T02:28:35;3.75;;;1.30;;
32912;SDS011;19266;45.580;-122.680;2022-09-09T02:31:05;4.50;;;1.40;;
32912;SDS011;19266;45.580;-122.680;2022-09-09T02:33:39;2.83;;;1.35;;
32912;SDS011;19266;45.580;-122.680;2022-09-09T02:36:08;3.25;;;1.55;;
32912;SDS011;19266;45.580;-122.680;2022-09-09T02:38:40;4.80;;;1.72;;
32912;SDS011;19266;45.580;-122.680;2022-09-09T02:41:08;2.52;;;1.62;;
32912;SDS011;19266;45.580;-122.680;2022-09-09T02:43:37;4.42;;;1.70;;
32912;SDS011;19266;45.580;-122.680;2022-09-09T02:46:45;3.10;;;1.50;;
32912;SDS011;19266;45.580;-122.680;2022-09-09T02:48:59;4.35;;;1.90;;
32912;SDS011;19266;45.580;-122.680;2022-09-09T02:56:52;4.22;;;2.00;;
32912;SDS011;19266;45.580;-122.680;2022-09-09T02:59:24;3.17;;;2.10;;
32912;SDS011;19266;45.580;-122.680;2022-09-09T03:01:53;5.17;;;2.17;;
32912;SDS011;19266;45.580;-122.680;2022-09-09T03:04:22;6.53;;;2.10;;
32912;SDS011;19266;45.580;-122.680;2022-09-09T03:06:52;4.80;;;2.20;;
32912;SDS011;19266;45.580;-122.680;2022-09-09T03:09:24;3.72;;;1.95;;
32912;SDS011;19266;45.580;-122.680;2022-09-09T03:11:54;4.10;;;2.00;;
32912;SDS011;19266;45.580;-122.680;2022-09-09T03:14:23;4.90;;;2.45;;
32912;SDS011;19266;45.580;-122.680;2022-09-09T03:16:56;4.80;;;2.02;;
32912;SDS011;19266;45.580;-122.680;2022-09-09T03:19:26;7.80;;;2.27;;
32912;SDS011;19266;45.580;-122.680;2022-09-09T03:21:55;5.17;;;2.27;;
32912;SDS011;19266;45.580;-122.680;2022-09-09T03:24:24;3.47;;;2.00;;
32912;SDS011;19266;45.580;-122.680;2022-09-09T03:26:53;5.90;;;1.90;;
32912;SDS011;19266;45.580;-122.680;2022-09-09T03:29:23;4.92;;;1.98;;
32912;SDS011;19266;45.580;-122.680;2022-09-09T03:31:52;4.65;;;1.92;;
32912;SDS011;19266;45.580;-122.680;2022-09-09T03:34:21;4.58;;;1.90;;
32912;SDS011;19266;45.580;-122.680;2022-09-09T03:36:51;9.10;;;2.10;;
32912;SDS011;19266;45.580;-122.680;2022-09-09T03:39:20;4.53;;;1.90;;
32912;SDS011;19266;45.580;-122.680;2022-09-09T03:41:49;5.28;;;1.92;;
32912;SDS011;19266;45.580;-122.680;2022-09-09T03:44:18;7.37;;;1.65;;
32912;SDS011;19266;45.580;-122.680;2022-09-09T03:46:47;5.12;;;1.72;;
32912;SDS011;19266;45.580;-122.680;2022-09-09T03:49:15;2.05;;;1.55;;
32912;SDS011;19266;45.580;-122.680;2022-09-09T03:51:52;3.17;;;1.77;;
32912;SDS011;19266;45.580;-122.680;2022-09-09T03:54:23;4.85;;;1.67;;
32912;SDS011;19266;45.580;-122.680;2022-09-09T03:56:52;3.98;;;1.40;;
32912;SDS011;19266;45.580;-122.680;2022-09-09T03:59:21;5.45;;;1.72;;
32912;SDS011;19266;45.580;-122.680;2022-09-09T04:01:50;4.70;;;1.50;;
32912;SDS011;19266;45.580;-122.680;2022-09-09T04:04:20;6.05;;;1.80;;
32912;SDS011;19266;45.580;-122.680;2022-09-09T04:06:52;4.33;;;2.02;;
32912;SDS011;19266;45.580;-122.680;2022-09-09T04:09:21;4.83;;;1.80;;
32912;SDS011;19266;45.580;-122.680;2022-09-09T04:11:54;3.90;;;1.50;;
32912;SDS011;19266;45.580;-122.680;2022-09-09T04:14:26;2.70;;;1.60;;
32912;SDS011;19266;45.580;-122.680;2022-09-09T04:16:55;3.60;;;1.40;;
32912;SDS011;19266;45.580;-122.680;2022-09-09T04:19:25;3.02;;;1.47;;
32912;SDS011;19266;45.580;-122.680;2022-09-09T04:21:55;5.65;;;1.87;;
32912;SDS011;19266;45.580;-122.680;2022-09-09T04:24:28;5.70;;;1.32;;
32912;SDS011;19266;45.580;-122.680;2022-09-09T04:26:56;2.05;;;1.27;;
32912;SDS011;19266;45.580;-122.680;2022-09-09T04:29:25;4.78;;;1.10;;
32912;SDS011;19266;45.580;-122.680;2022-09-09T04:31:55;3.25;;;1.40;;
32912;SDS011;19266;45.580;-122.680;2022-09-09T04:34:24;2.90;;;1.40;;
32912;SDS011;19266;45.580;-122.680;2022-09-09T04:37:08;3.10;;;1.40;;
32912;SDS011;19266;45.580;-122.680;2022-09-09T04:39:33;4.22;;;1.00;;
32912;SDS011;19266;45.580;-122.680;2022-09-09T04:42:03;6.55;;;1.20;;
32912;SDS011;19266;45.580;-122.680;2022-09-09T04:44:32;1.77;;;0.93;;
32912;SDS011;19266;45.580;-122.680;2022-09-09T04:47:03;2.65;;;1.20;;
32912;SDS011;19266;45.580;-122.680;2022-09-09T04:49:34;3.42;;;1.27;;
32912;SDS011;19266;45.580;-122.680;2022-09-09T04:52:03;3.02;;;1.30;;
32912;SDS011;19266;45.580;-122.680;2022-09-09T04:54:35;2.08;;;1.00;;
32912;SDS011;19266;45.580;-122.680;2022-09-09T04:57:10;2.75;;;1.00;;
32912;SDS011;19266;45.580;-122.680;2022-09-09T04:59:40;2.25;;;1.00;;
32912;SDS011;19266;45.580;-122.680;2022-09-09T05:02:09;2.30;;;0.88;;
32912;SDS011;19266;45.580;-122.680;2022-09-09T05:04:38;8.25;;;1.37;;
32912;SDS011;19266;45.580;-122.680;2022-09-09T05:07:07;5.20;;;1.00;;
32912;SDS011;19266;45.580;-122.680;2022-09-09T05:09:36;4.25;;;1.22;;
32912;SDS011;19266;45.580;-122.680;2022-09-09T05:12:05;5.15;;;1.20;;
32912;SDS011;19266;45.580;-122.680;2022-09-09T05:14:34;3.35;;;1.10;;
32912;SDS011;19266;45.580;-122.680;2022-09-09T05:17:05;3.15;;;1.10;;
32912;SDS011;19266;45.580;-122.680;2022-09-09T05:19:33;4.20;;;1.00;;
32912;SDS011;19266;45.580;-122.680;2022-09-09T05:22:02;1.35;;;0.90;;
32912;SDS011;19266;45.580;-122.680;2022-09-09T05:24:32;3.95;;;1.00;;
32912;SDS011;19266;45.580;-122.680;2022-09-09T05:27:01;2.55;;;1.00;;
32912;SDS011;19266;45.580;-122.680;2022-09-09T05:29:30;1.62;;;1.05;;
32912;SDS011;19266;45.580;-122.680;2022-09-09T05:32:00;4.90;;;1.30;;
32912;SDS011;19266;45.580;-122.680;2022-09-09T05:34:31;6.55;;;1.40;;
32912;SDS011;19266;45.580;-122.680;2022-09-09T05:36:59;3.85;;;1.27;;
32912;SDS011;19266;45.580;-122.680;2022-09-09T05:39:28;3.80;;;1.10;;
32912;SDS011;19266;45.580;-122.680;2022-09-09T05:41:57;2.83;;;1.25;;
32912;SDS011;19266;45.580;-122.680;2022-09-09T05:44:26;2.58;;;1.20;;
32912;SDS011;19266;45.580;-122.680;2022-09-09T05:46:55;3.87;;;1.00;;
32912;SDS011;19266;45.580;-122.680;2022-09-09T05:49:25;2.45;;;1.02;;
32912;SDS011;19266;45.580;-122.680;2022-09-09T05:51:54;3.40;;;1.00;;
32912;SDS011;19266;45.580;-122.680;2022-09-09T05:54:29;1.67;;;0.98;;
32912;SDS011;19266;45.580;-122.680;2022-09-09T05:56:58;3.50;;;0.98;;
32912;SDS011;19266;45.580;-122.680;2022-09-09T05:59:27;4.42;;;1.00;;
32912;SDS011;19266;45.580;-122.680;2022-09-09T06:01:55;17.40;;;1.87;;
32912;SDS011;19266;45.580;-122.680;2022-09-09T06:04:24;6.42;;;1.42;;
32912;SDS011;19266;45.580;-122.680;2022-09-09T06:06:53;6.05;;;1.10;;
32912;SDS011;19266;45.580;-122.680;2022-09-09T06:09:22;2.47;;;1.27;;
32912;SDS011;19266;45.580;-122.680;2022-09-09T06:11:51;3.33;;;1.20;;
32912;SDS011;19266;45.580;-122.680;2022-09-09T06:14:21;2.87;;;1.27;;
32912;SDS011;19266;45.580;-122.680;2022-09-09T06:16:50;2.58;;;1.40;;
32912;SDS011;19266;45.580;-122.680;2022-09-09T06:19:25;2.15;;;1.30;;
32912;SDS011;19266;45.580;-122.680;2022-09-09T06:21:49;5.00;;;1.30;;
32912;SDS011;19266;45.580;-122.680;2022-09-09T06:24:19;3.85;;;1.32;;
32912;SDS011;19266;45.580;-122.680;2022-09-09T06:26:49;12.55;;;1.47;;
32912;SDS011;19266;45.580;-122.680;2022-09-09T06:29:18;8.70;;;1.80;;
32912;SDS011;19266;45.580;-122.680;2022-09-09T06:31:48;2.20;;;1.20;;
32912;SDS011;19266;45.580;-122.680;2022-09-09T06:34:17;5.65;;;1.30;;
32912;SDS011;19266;45.580;-122.680;2022-09-09T06:36:46;2.67;;;1.00;;
32912;SDS011;19266;45.580;-122.680;2022-09-09T06:39:15;2.87;;;1.42;;
32912;SDS011;19266;45.580;-122.680;2022-09-09T06:41:43;2.77;;;1.37;;
32912;SDS011;19266;45.580;-122.680;2022-09-09T06:44:12;3.15;;;1.52;;
32912;SDS011;19266;45.580;-122.680;2022-09-09T06:46:44;2.55;;;1.40;;
32912;SDS011;19266;45.580;-122.680;2022-09-09T06:49:15;3.37;;;1.40;;
32912;SDS011;19266;45.580;-122.680;2022-09-09T06:51:45;4.30;;;1.67;;
32912;SDS011;19266;45.580;-122.680;2022-09-09T06:54:14;9.25;;;1.52;;
32912;SDS011;19266;45.580;-122.680;2022-09-09T06:56:43;3.10;;;1.40;;
32912;SDS011;19266;45.580;-122.680;2022-09-09T06:59:12;5.22;;;1.62;;
32912;SDS011;19266;45.580;-122.680;2022-09-09T07:01:42;3.83;;;1.12;;
32912;SDS011;19266;45.580;-122.680;2022-09-09T07:04:18;3.27;;;1.50;;
32912;SDS011;19266;45.580;-122.680;2022-09-09T07:06:47;9.85;;;1.40;;
32912;SDS011;19266;45.580;-122.680;2022-09-09T07:09:16;3.67;;;1.20;;
32912;SDS011;19266;45.580;-122.680;2022-09-09T07:11:51;2.45;;;1.20;;
32912;SDS011;19266;45.580;-122.680;2022-09-09T07:14:15;2.20;;;1.10;;
32912;SDS011;19266;45.580;-122.680;2022-09-09T07:16:45;1.70;;;1.00;;
32912;SDS011;19266;45.580;-122.680;2022-09-09T07:19:14;3.15;;;1.45;;
32912;SDS011;19266;45.580;-122.680;2022-09-09T07:21:43;3.58;;;1.22;;
32912;SDS011;19266;45.580;-122.680;2022-09-09T07:24:12;3.52;;;1.40;;
32912;SDS011;19266;45.580;-122.680;2022-09-09T07:26:49;10.88;;;1.70;;
32912;SDS011;19266;45.580;-122.680;2022-09-09T07:32:06;5.15;;;1.70;;
32912;SDS011;19266;45.580;-122.680;2022-09-09T07:34:34;9.90;;;1.60;;
32912;SDS011;19266;45.580;-122.680;2022-09-09T07:37:11;3.60;;;1.25;;
32912;SDS011;19266;45.580;-122.680;2022-09-09T07:39:40;4.00;;;1.30;;
32912;SDS011;19266;45.580;-122.680;2022-09-09T07:42:09;4.80;;;1.40;;
32912;SDS011;19266;45.580;-122.680;2022-09-09T07:44:39;5.45;;;1.47;;
32912;SDS011;19266;45.580;-122.680;2022-09-09T07:47:09;10.60;;;1.80;;
32912;SDS011;19266;45.580;-122.680;2022-09-09T07:49:38;8.73;;;1.62;;
32912;SDS011;19266;45.580;-122.680;2022-09-09T07:52:07;10.40;;;1.60;;
32912;SDS011;19266;45.580;-122.680;2022-09-09T07:54:36;2.87;;;1.65;;
32912;SDS011;19266;45.580;-122.680;2022-09-09T07:57:05;6.25;;;1.55;;
32912;SDS011;19266;45.580;-122.680;2022-09-09T07:59:34;7.97;;;1.47;;
32912;SDS011;19266;45.580;-122.680;2022-09-09T08:02:03;2.55;;;1.65;;
32912;SDS011;19266;45.580;-122.680;2022-09-09T08:04:32;5.35;;;1.70;;
32912;SDS011;19266;45.580;-122.680;2022-09-09T08:07:02;3.17;;;1.40;;
32912;SDS011;19266;45.580;-122.680;2022-09-09T08:09:31;4.17;;;1.70;;
32912;SDS011;19266;45.580;-122.680;2022-09-09T08:12:01;5.15;;;1.92;;
32912;SDS011;19266;45.580;-122.680;2022-09-09T08:14:30;6.10;;;2.05;;
32912;SDS011;19266;45.580;-122.680;2022-09-09T08:16:59;7.50;;;2.05;;
32912;SDS011;19266;45.580;-122.680;2022-09-09T08:19:33;7.33;;;2.10;;
32912;SDS011;19266;45.580;-122.680;2022-09-09T08:22:03;7.00;;;2.00;;
32912;SDS011;19266;45.580;-122.680;2022-09-09T08:24:32;7.92;;;1.80;;
32912;SDS011;19266;45.580;-122.680;2022-09-09T08:27:01;21.27;;;2.58;;
32912;SDS011;19266;45.580;-122.680;2022-09-09T08:29:31;11.10;;;2.05;;
32912;SDS011;19266;45.580;-122.680;2022-09-09T08:32:00;5.45;;;1.65;;
32912;SDS011;19266;45.580;-122.680;2022-09-09T08:34:30;4.35;;;1.60;;
32912;SDS011;19266;45.580;-122.680;2022-09-09T08:36:59;4.90;;;2.15;;
32912;SDS011;19266;45.580;-122.680;2022-09-09T08:39:28;4.70;;;2.05;;
32912;SDS011;19266;45.580;-122.680;2022-09-09T08:42:04;5.95;;;2.22;;
32912;SDS011;19266;45.580;-122.680;2022-09-09T08:55:37;3.85;;;2.20;;
32912;SDS011;19266;45.580;-122.680;2022-09-09T08:58:12;4.78;;;2.27;;
32912;SDS011;19266;45.580;-122.680;2022-09-09T09:00:39;6.62;;;2.20;;
32912;SDS011;19266;45.580;-122.680;2022-09-09T09:08:20;11.60;;;2.80;;
32912;SDS011;19266;45.580;-122.680;2022-09-09T09:10:48;4.37;;;2.42;;
32912;SDS011;19266;45.580;-122.680;2022-09-09T09:13:24;5.15;;;2.40;;
32912;SDS011;19266;45.580;-122.680;2022-09-09T09:15:55;6.70;;;2.90;;
32912;SDS011;19266;45.580;-122.680;2022-09-09T09:18:25;4.55;;;2.77;;
32912;SDS011;19266;45.580;-122.680;2022-09-09T09:21:10;6.33;;;2.90;;
32912;SDS011;19266;45.580;-122.680;2022-09-09T09:23:50;3.80;;;2.50;;
32912;SDS011;19266;45.580;-122.680;2022-09-09T09:26:14;7.30;;;3.02;;
32912;SDS011;19266;45.580;-122.680;2022-09-09T09:28:43;9.53;;;2.90;;
32912;SDS011;19266;45.580;-122.680;2022-09-09T09:31:12;7.55;;;2.58;;
32912;SDS011;19266;45.580;-122.680;2022-09-09T09:33:51;5.65;;;2.70;;
32912;SDS011;19266;45.580;-122.680;2022-09-09T09:36:23;7.05;;;2.62;;
32912;SDS011;19266;45.580;-122.680;2022-09-09T09:38:57;5.22;;;2.90;;
32912;SDS011;19266;45.580;-122.680;2022-09-09T09:41:31;4.28;;;2.62;;
32912;SDS011;19266;45.580;-122.680;2022-09-09T09:44:01;36.35;;;3.87;;
32912;SDS011;19266;45.580;-122.680;2022-09-09T09:46:30;5.62;;;2.50;;
32912;SDS011;19266;45.580;-122.680;2022-09-09T09:49:04;6.12;;;2.75;;
32912;SDS011;19266;45.580;-122.680;2022-09-09T09:51:33;6.30;;;2.72;;
32912;SDS011;19266;45.580;-122.680;2022-09-09T09:56:44;5.67;;;2.70;;
32912;SDS011;19266;45.580;-122.680;2022-09-09T09:59:20;4.35;;;2.67;;
32912;SDS011;19266;45.580;-122.680;2022-09-09T10:01:49;5.97;;;2.80;;
32912;SDS011;19266;45.580;-122.680;2022-09-09T10:04:22;4.95;;;2.62;;
32912;SDS011;19266;45.580;-122.680;2022-09-09T10:06:51;5.67;;;2.85;;
32912;SDS011;19266;45.580;-122.680;2022-09-09T10:09:22;7.60;;;2.90;;
32912;SDS011;19266;45.580;-122.680;2022-09-09T10:12:03;3.87;;;2.80;;
32912;SDS011;19266;45.580;-122.680;2022-09-09T10:14:23;5.92;;;2.85;;
32912;SDS011;19266;45.580;-122.680;2022-09-09T10:19:29;6.17;;;2.90;;
32912;SDS011;19266;45.580;-122.680;2022-09-09T10:22:32;5.00;;;3.20;;
32912;SDS011;19266;45.580;-122.680;2022-09-09T10:27:06;5.78;;;2.80;;
32912;SDS011;19266;45.580;-122.680;2022-09-09T10:29:52;14.50;;;3.50;;
32912;SDS011;19266;45.580;-122.680;2022-09-09T10:40:20;7.45;;;2.92;;
32912;SDS011;19266;45.580;-122.680;2022-09-09T10:42:48;6.12;;;3.10;;
32912;SDS011;19266;45.580;-122.680;2022-09-09T10:45:18;7.33;;;3.08;;
32912;SDS011;19266;45.580;-122.680;2022-09-09T10:47:51;4.40;;;2.90;;
32912;SDS011;19266;45.580;-122.680;2022-09-09T10:55:33;5.65;;;3.33;;
32912;SDS011;19266;45.580;-122.680;2022-09-09T10:57:58;4.87;;;3.12;;
32912;SDS011;19266;45.580;-122.680;2022-09-09T11:00:36;6.85;;;3.20;;
32912;SDS011;19266;45.580;-122.680;2022-09-09T11:03:00;6.25;;;3.30;;
32912;SDS011;19266;45.580;-122.680;2022-09-09T11:05:40;7.72;;;3.40;;
32912;SDS011;19266;45.580;-122.680;2022-09-09T11:08:02;5.95;;;3.25;;
32912;SDS011;19266;45.580;-122.680;2022-09-09T11:13:05;5.53;;;3.60;;
32912;SDS011;19266;45.580;-122.680;2022-09-09T11:15:36;8.65;;;3.20;;
32912;SDS011;19266;45.580;-122.680;2022-09-09T11:18:05;8.48;;;3.58;;
32912;SDS011;19266;45.580;-122.680;2022-09-09T11:20:35;5.80;;;3.10;;
32912;SDS011;19266;45.580;-122.680;2022-09-09T11:23:27;8.85;;;3.40;;
32912;SDS011;19266;45.580;-122.680;2022-09-09T11:25:47;6.10;;;3.35;;
32912;SDS011;19266;45.580;-122.680;2022-09-09T11:28:15;6.62;;;3.33;;
32912;SDS011;19266;45.580;-122.680;2022-09-09T11:30:50;7.28;;;3.47;;
32912;SDS011;19266;45.580;-122.680;2022-09-09T11:41:06;8.20;;;3.62;;
32912;SDS011;19266;45.580;-122.680;2022-09-09T11:43:41;11.43;;;3.37;;
32912;SDS011;19266;45.580;-122.680;2022-09-09T11:46:10;7.60;;;3.65;;
32912;SDS011;19266;45.580;-122.680;2022-09-09T11:48:43;7.85;;;3.45;;
32912;SDS011;19266;45.580;-122.680;2022-09-09T11:56:26;9.90;;;3.62;;
32912;SDS011;19266;45.580;-122.680;2022-09-09T12:01:30;7.08;;;3.80;;
32912;SDS011;19266;45.580;-122.680;2022-09-09T12:04:11;8.65;;;3.37;;
32912;SDS011;19266;45.580;-122.680;2022-09-09T12:06:30;6.33;;;3.50;;
32912;SDS011;19266;45.580;-122.680;2022-09-09T12:09:08;6.47;;;3.50;;
32912;SDS011;19266;45.580;-122.680;2022-09-09T12:11:38;9.08;;;3.98;;
32912;SDS011;19266;45.580;-122.680;2022-09-09T12:14:18;6.40;;;3.42;;
32912;SDS011;19266;45.580;-122.680;2022-09-09T12:16:38;7.72;;;3.65;;
32912;SDS011;19266;45.580;-122.680;2022-09-09T12:21:44;5.62;;;3.45;;
32912;SDS011;19266;45.580;-122.680;2022-09-09T12:24:11;9.78;;;3.70;;
32912;SDS011;19266;45.580;-122.680;2022-09-09T12:29:19;6.95;;;3.25;;
32912;SDS011;19266;45.580;-122.680;2022-09-09T12:34:38;6.05;;;3.50;;
32912;SDS011;19266;45.580;-122.680;2022-09-09T12:37:16;6.58;;;4.22;;
32912;SDS011;19266;45.580;-122.680;2022-09-09T12:39:47;10.82;;;6.90;;
32912;SDS011;19266;45.580;-122.680;2022-09-09T12:42:18;7.20;;;3.92;;
32912;SDS011;19266;45.580;-122.680;2022-09-09T12:44:54;8.35;;;3.87;;
32912;SDS011;19266;45.580;-122.680;2022-09-09T12:47:33;4.90;;;3.42;;
32912;SDS011;19266;45.580;-122.680;2022-09-09T12:50:01;6.65;;;3.85;;
32912;SDS011;19266;45.580;-122.680;2022-09-09T12:52:35;6.00;;;3.25;;
32912;SDS011;19266;45.580;-122.680;2022-09-09T12:55:04;6.95;;;3.45;;
32912;SDS011;19266;45.580;-122.680;2022-09-09T12:57:38;5.55;;;3.37;;
32912;SDS011;19266;45.580;-122.680;2022-09-09T13:00:05;6.78;;;3.20;;
32912;SDS011;19266;45.580;-122.680;2022-09-09T13:02:34;6.22;;;3.20;;
32912;SDS011;19266;45.580;-122.680;2022-09-09T13:05:08;6.78;;;3.25;;
32912;SDS011;19266;45.580;-122.680;2022-09-09T13:07:36;4.90;;;3.02;;
32912;SDS011;19266;45.580;-122.680;2022-09-09T13:10:05;7.47;;;3.50;;
32912;SDS011;19266;45.580;-122.680;2022-09-09T13:12:35;6.55;;;3.40;;
32912;SDS011;19266;45.580;-122.680;2022-09-09T13:15:05;10.53;;;4.00;;
32912;SDS011;19266;45.580;-122.680;2022-09-09T13:17:35;6.92;;;3.70;;
32912;SDS011;19266;45.580;-122.680;2022-09-09T13:20:04;6.42;;;3.62;;
32912;SDS011;19266;45.580;-122.680;2022-09-09T13:22:37;8.68;;;4.58;;
32912;SDS011;19266;45.580;-122.680;2022-09-09T13:27:41;7.15;;;4.05;;
32912;SDS011;19266;45.580;-122.680;2022-09-09T13:30:22;8.30;;;3.80;;
32912;SDS011;19266;45.580;-122.680;2022-09-09T13:33:01;10.60;;;3.70;;
32912;SDS011;19266;45.580;-122.680;2022-09-09T13:35:30;8.55;;;3.77;;
32912;SDS011;19266;45.580;-122.680;2022-09-09T13:38:06;8.45;;;4.17;;
32912;SDS011;19266;45.580;-122.680;2022-09-09T13:40:29;13.72;;;4.75;;
32912;SDS011;19266;45.580;-122.680;2022-09-09T13:42:59;10.28;;;3.95;;
32912;SDS011;19266;45.580;-122.680;2022-09-09T13:45:29;10.15;;;3.65;;
32912;SDS011;19266;45.580;-122.680;2022-09-09T13:47:58;6.90;;;3.70;;
32912;SDS011;19266;45.580;-122.680;2022-09-09T13:50:29;8.30;;;4.22;;
32912;SDS011;19266;45.580;-122.680;2022-09-09T13:52:58;8.30;;;4.60;;
32912;SDS011;19266;45.580;-122.680;2022-09-09T13:55:27;7.97;;;3.85;;
32912;SDS011;19266;45.580;-122.680;2022-09-09T13:57:58;6.95;;;3.50;;
32912;SDS011;19266;45.580;-122.680;2022-09-09T14:00:36;7.95;;;3.50;;
32912;SDS011;19266;45.580;-122.680;2022-09-09T14:03:01;7.10;;;3.27;;
32912;SDS011;19266;45.580;-122.680;2022-09-09T14:05:31;7.62;;;3.42;;
32912;SDS011;19266;45.580;-122.680;2022-09-09T14:08:00;7.20;;;3.37;;
32912;SDS011;19266;45.580;-122.680;2022-09-09T14:10:31;9.68;;;3.58;;
32912;SDS011;19266;45.580;-122.680;2022-09-09T14:13:00;6.30;;;3.10;;
32912;SDS011;19266;45.580;-122.680;2022-09-09T14:15:29;9.08;;;3.55;;
32912;SDS011;19266;45.580;-122.680;2022-09-09T14:17:58;5.65;;;3.10;;
32912;SDS011;19266;45.580;-122.680;2022-09-09T14:20:27;9.50;;;3.70;;
32912;SDS011;19266;45.580;-122.680;2022-09-09T14:22:56;9.35;;;3.42;;
32912;SDS011;19266;45.580;-122.680;2022-09-09T14:25:26;5.65;;;3.20;;
32912;SDS011;19266;45.580;-122.680;2022-09-09T14:27:56;10.35;;;3.60;;
32912;SDS011;19266;45.580;-122.680;2022-09-09T14:30:25;10.35;;;3.75;;
32912;SDS011;19266;45.580;-122.680;2022-09-09T14:32:54;8.65;;;3.60;;
32912;SDS011;19266;45.580;-122.680;2022-09-09T14:35:23;6.70;;;3.50;;
32912;SDS011;19266;45.580;-122.680;2022-09-09T14:37:52;6.28;;;3.37;;
32912;SDS011;19266;45.580;-122.680;2022-09-09T14:40:23;8.20;;;3.70;;
32912;SDS011;19266;45.580;-122.680;2022-09-09T14:42:52;8.30;;;3.30;;
32912;SDS011;19266;45.580;-122.680;2022-09-09T14:45:21;8.23;;;3.33;;
32912;SDS011;19266;45.580;-122.680;2022-09-09T14:47:52;8.10;;;3.00;;
32912;SDS011;19266;45.580;-122.680;2022-09-09T14:50:21;9.95;;;3.30;;
32912;SDS011;19266;45.580;-122.680;2022-09-09T14:52:51;9.48;;;3.42;;
32912;SDS011;19266;45.580;-122.680;2022-09-09T14:55:20;12.13;;;4.08;;
32912;SDS011;19266;45.580;-122.680;2022-09-09T14:57:50;7.42;;;3.62;;
32912;SDS011;19266;45.580;-122.680;2022-09-09T15:00:19;7.10;;;3.55;;
32912;SDS011;19266;45.580;-122.680;2022-09-09T15:02:51;9.50;;;3.22;;
32912;SDS011;19266;45.580;-122.680;2022-09-09T15:05:19;9.68;;;3.02;;
32912;SDS011;19266;45.580;-122.680;2022-09-09T15:07:48;7.08;;;3.00;;
32912;SDS011;19266;45.580;-122.680;2022-09-09T15:10:17;5.42;;;2.98;;
32912;SDS011;19266;45.580;-122.680;2022-09-09T15:12:46;7.28;;;3.35;;
32912;SDS011;19266;45.580;-122.680;2022-09-09T15:15:16;7.45;;;3.27;;
32912;SDS011;19266;45.580;-122.680;2022-09-09T15:17:45;8.43;;;3.45;;
32912;SDS011;19266;45.580;-122.680;2022-09-09T15:20:14;6.28;;;3.08;;
32912;SDS011;19266;45.580;-122.680;2022-09-09T15:22:44;5.03;;;3.10;;
32912;SDS011;19266;45.580;-122.680;2022-09-09T15:25:13;4.97;;;2.95;;
32912;SDS011;19266;45.580;-122.680;2022-09-09T15:27:42;5.87;;;3.35;;
32912;SDS011;19266;45.580;-122.680;2022-09-09T15:30:12;4.72;;;3.00;;
32912;SDS011;19266;45.580;-122.680;2022-09-09T15:32:43;6.90;;;3.10;;
32912;SDS011;19266;45.580;-122.680;2022-09-09T15:35:17;3.77;;;3.15;;
32912;SDS011;19266;45.580;-122.680;2022-09-09T15:37:46;6.90;;;3.40;;
32912;SDS011;19266;45.580;-122.680;2022-09-09T15:40:15;9.10;;;2.90;;
32912;SDS011;19266;45.580;-122.680;2022-09-09T15:42:44;6.65;;;3.35;;
32912;SDS011;19266;45.580;-122.680;2022-09-09T15:45:13;5.90;;;3.00;;
32912;SDS011;19266;45.580;-122.680;2022-09-09T15:47:43;5.70;;;3.02;;
32912;SDS011;19266;45.580;-122.680;2022-09-09T15:50:13;7.42;;;3.17;;
32912;SDS011;19266;45.580;-122.680;2022-09-09T15:52:42;7.60;;;2.92;;
32912;SDS011;19266;45.580;-122.680;2022-09-09T15:55:12;6.10;;;3.12;;
32912;SDS011;19266;45.580;-122.680;2022-09-09T15:57:41;5.12;;;3.08;;
32912;SDS011;19266;45.580;-122.680;2022-09-09T16:00:10;5.30;;;2.90;;
32912;SDS011;19266;45.580;-122.680;2022-09-09T16:02:40;6.15;;;2.98;;
32912;SDS011;19266;45.580;-122.680;2022-09-09T16:05:10;7.10;;;3.50;;
32912;SDS011;19266;45.580;-122.680;2022-09-09T16:07:39;12.37;;;3.42;;
32912;SDS011;19266;45.580;-122.680;2022-09-09T16:10:09;5.10;;;3.30;;
32912;SDS011;19266;45.580;-122.680;2022-09-09T16:12:40;7.72;;;3.22;;